Time;durP1;ratioP1;P1;durP2;ratioP2;P2;SDS_P1;SDS_P2;PMS_P1;PMS_P2;Temp;Humidity;BMP_temperature;BMP_pressure;BME280_temperature;BME280_humidity;BME280_pressure;Samples;Min_cycle;Max_cycle;Signal;HPM_P1;HPM_P2
2023/01/31 00:00:54;;;;;;;12.83;5.60;;;3.50;99.90;;;;;;5095132;28;20016;-79
2023/01/31 00:03:20;;;;;;;12.33;5.17;;;3.60;99.90;;;;;;5094727;28;20146;-79
2023/01/31 00:05:45;;;;;;;11.47;5.10;;;3.60;99.90;;;;;;5093901;28;20024;-79
2023/01/31 00:08:12;;;;;;;10.83;5.10;;;3.60;99.90;;;;;;5094009;28;20024;-79
2023/01/31 00:10:38;;;;;;;11.67;5.63;;;3.60;99.90;;;;;;5094938;28;20020;-79
2023/01/31 00:13:04;;;;;;;12.00;5.37;;;3.60;99.90;;;;;;5094026;28;20025;-79
2023/01/31 00:15:29;;;;;;;10.50;5.93;;;3.60;99.90;;;;;;5093432;28;20077;-79
2023/01/31 00:17:55;;;;;;;12.50;5.37;;;3.60;99.90;;;;;;5095224;28;20039;-79
2023/01/31 00:20:21;;;;;;;9.00;4.53;;;3.50;99.90;;;;;;5093684;28;20131;-78
2023/01/31 00:22:46;;;;;;;11.20;5.60;;;3.50;99.90;;;;;;5093232;28;20111;-79
2023/01/31 00:25:12;;;;;;;10.50;5.07;;;3.50;99.90;;;;;;5093565;28;20381;-79
2023/01/31 00:27:37;;;;;;;9.53;5.17;;;3.50;99.90;;;;;;5094185;28;20458;-79
2023/01/31 00:30:03;;;;;;;9.23;5.20;;;3.50;99.90;;;;;;5095042;28;20071;-78
2023/01/31 00:32:29;;;;;;;8.77;5.07;;;3.50;99.90;;;;;;5094329;28;20031;-80
2023/01/31 00:34:55;;;;;;;10.33;4.73;;;3.50;99.90;;;;;;5094458;28;20032;-78
2023/01/31 00:37:21;;;;;;;10.93;5.00;;;3.40;99.90;;;;;;5092634;28;20482;-78
2023/01/31 00:39:46;;;;;;;13.37;4.97;;;3.40;99.90;;;;;;5092603;28;20461;-78
2023/01/31 00:42:12;;;;;;;11.60;5.60;;;3.50;99.90;;;;;;5093956;28;20099;-78
2023/01/31 00:44:38;;;;;;;9.17;5.13;;;3.50;99.90;;;;;;5092575;28;20432;-79
2023/01/31 00:47:03;;;;;;;14.90;4.73;;;3.50;99.90;;;;;;5092982;28;20028;-78
2023/01/31 00:49:29;;;;;;;11.37;4.67;;;3.50;99.90;;;;;;5092426;28;20074;-79
2023/01/31 00:51:54;;;;;;;9.80;4.50;;;3.50;99.90;;;;;;5092985;28;20032;-78
2023/01/31 00:54:20;;;;;;;12.37;5.17;;;3.40;99.90;;;;;;5092919;28;20471;-79
2023/01/31 00:56:46;;;;;;;11.20;5.33;;;3.50;99.90;;;;;;5092257;28;20032;-79
2023/01/31 00:59:11;;;;;;;12.77;5.50;;;3.50;99.90;;;;;;5093153;28;20115;-78
2023/01/31 01:01:37;;;;;;;10.00;5.07;;;3.50;99.90;;;;;;5092683;28;20028;-79
2023/01/31 01:04:03;;;;;;;10.97;5.07;;;3.50;99.90;;;;;;5093316;28;20028;-79
2023/01/31 01:06:29;;;;;;;10.03;5.50;;;3.50;99.90;;;;;;5094547;28;20036;-80
2023/01/31 01:08:58;;;;;;;13.97;5.40;;;3.40;99.90;;;;;;5094206;28;20043;-79
2023/01/31 01:11:30;;;;;;;12.47;6.00;;;3.40;99.90;;;;;;5094291;28;20016;-79
2023/01/31 01:13:56;;;;;;;9.50;3.75;;;3.40;99.90;;;;;;5094229;28;20020;-79
2023/01/31 01:16:29;;;;;;;14.33;5.40;;;3.30;99.90;;;;;;5093063;28;20465;-79
2023/01/31 01:18:55;;;;;;;10.93;5.60;;;3.30;99.90;;;;;;5095910;28;20032;-79
2023/01/31 01:21:27;;;;;;;12.33;5.67;;;3.30;99.90;;;;;;5096567;28;20402;-78
2023/01/31 01:23:55;;;;;;;9.88;4.30;;;3.30;99.90;;;;;;5096336;28;20182;-78
2023/01/31 01:26:24;;;;;;;10.67;5.03;;;3.30;99.90;;;;;;5096934;28;20118;-79
2023/01/31 01:28:51;;;;;;;8.53;5.17;;;3.30;99.90;;;;;;5095860;28;20111;-79
2023/01/31 01:31:18;;;;;;;11.90;5.20;;;3.30;99.90;;;;;;5096214;28;20035;-79
2023/01/31 01:33:45;;;;;;;12.40;5.27;;;3.30;99.90;;;;;;5117375;28;20035;-79
2023/01/31 01:36:12;;;;;;;11.57;5.10;;;3.30;99.90;;;;;;5100141;28;20024;-78
2023/01/31 01:38:40;;;;;;;14.70;5.17;;;3.30;99.90;;;;;;5098855;28;20030;-78
2023/01/31 01:41:06;;;;;;;10.93;5.10;;;3.20;99.90;;;;;;5099313;28;20373;-79
2023/01/31 01:43:47;;;;;;;11.63;5.33;;;3.20;99.90;;;;;;5098665;28;20468;-81
2023/01/31 01:46:17;;;;;;;12.83;5.37;;;3.20;99.90;;;;;;5117167;28;20070;-78
2023/01/31 01:48:46;;;;;;;10.00;5.07;;;3.20;99.90;;;;;;5098402;28;20456;-78
2023/01/31 01:51:13;;;;;;;9.73;4.93;;;3.20;99.90;;;;;;5098855;28;20036;-79
2023/01/31 01:53:42;;;;;;;10.17;4.80;;;3.20;99.90;;;;;;5097659;28;20080;-79
2023/01/31 01:56:16;;;;;;;15.87;6.00;;;3.20;99.90;;;;;;5098765;28;20498;-78
2023/01/31 01:58:49;;;;;;;11.93;5.93;;;3.20;99.90;;;;;;5116232;28;20102;-79
2023/01/31 02:01:15;;;;;;;13.83;6.00;;;3.10;99.90;;;;;;5098242;28;20032;-78
2023/01/31 02:03:43;;;;;;;13.90;5.83;;;3.10;99.90;;;;;;5116225;28;20361;-79
2023/01/31 02:06:09;;;;;;;10.53;5.60;;;3.10;99.90;;;;;;5117075;28;20063;-79
2023/01/31 02:08:38;;;;;;;13.93;6.23;;;3.20;99.90;;;;;;5098416;28;20019;-81
2023/01/31 02:11:25;;;;;;;16.07;6.77;;;3.10;99.90;;;;;;5098505;28;20046;-78
2023/01/31 02:14:00;;;;;;;12.93;5.57;;;3.10;99.90;;;;;;5097642;28;20494;-78
2023/01/31 02:16:25;;;;;;;10.83;5.87;;;3.10;99.90;;;;;;5116629;28;20023;-78
2023/01/31 02:18:51;;;;;;;13.70;6.23;;;3.10;99.90;;;;;;5115970;28;20090;-78
2023/01/31 02:21:50;;;;;;;14.17;5.97;;;3.00;99.90;;;;;;5098021;28;20062;-78
2023/01/31 02:24:37;;;;;;;12.43;5.93;;;3.00;99.90;;;;;;5098521;28;20088;-78
2023/01/31 02:27:28;;;;;;;17.00;6.20;;;3.00;99.90;;;;;;5098532;28;20023;-78
2023/01/31 02:30:24;;;;;;;13.13;6.50;;;3.00;99.90;;;;;;5098099;28;20027;-79
2023/01/31 02:32:59;;;;;;;16.30;6.50;;;2.90;99.90;;;;;;5097844;28;20074;-79
2023/01/31 02:35:46;;;;;;;12.60;6.53;;;2.90;99.90;;;;;;5098567;28;20034;-78
2023/01/31 02:38:41;;;;;;;13.80;5.73;;;2.90;99.90;;;;;;5116686;28;20038;-79
2023/01/31 02:41:35;;;;;;;14.27;6.27;;;2.90;99.90;;;;;;5116316;28;20085;-79
2023/01/31 02:47:10;;;;;;;17.83;6.63;;;2.80;99.90;;;;;;5115988;28;20038;-79
2023/01/31 02:49:56;;;;;;;13.07;6.70;;;2.80;99.90;;;;;;5097939;28;20024;-81
2023/01/31 02:52:40;;;;;;;18.50;6.83;;;2.80;99.90;;;;;;5098065;28;20034;-79
2023/01/31 02:58:05;;;;;;;12.73;7.00;;;2.70;99.90;;;;;;5115477;28;20031;-79
2023/01/31 03:00:33;;;;;;;14.83;6.50;;;2.70;99.90;;;;;;5097573;28;20031;-79
2023/01/31 03:02:59;;;;;;;14.43;6.13;;;2.70;99.90;;;;;;5096577;28;20039;-79
2023/01/31 03:05:25;;;;;;;11.83;5.97;;;2.70;99.90;;;;;;5115587;28;20023;-79
2023/01/31 03:07:58;;;;;;;18.83;6.83;;;2.80;99.90;;;;;;5096735;28;20076;-79
2023/01/31 03:10:29;;;;;;;14.17;6.93;;;2.70;99.90;;;;;;5115569;28;20027;-79
2023/01/31 03:13:10;;;;;;;15.83;6.70;;;2.80;99.90;;;;;;5097033;28;20047;-79
2023/01/31 03:19:12;;;;;;;12.80;6.37;;;2.80;99.90;;;;;;5115486;28;20061;-79
2023/01/31 03:21:54;;;;;;;13.90;6.23;;;2.80;99.90;;;;;;5115564;28;20031;-80
2023/01/31 03:24:25;;;;;;;14.75;6.00;;;2.80;99.90;;;;;;5115908;28;20031;-79
2023/01/31 03:26:54;;;;;;;16.17;6.90;;;2.80;99.90;;;;;;5096854;28;20028;-79
2023/01/31 03:29:21;;;;;;;17.40;7.50;;;2.80;99.90;;;;;;5097141;28;20049;-79
2023/01/31 03:32:04;;;;;;;15.00;6.70;;;2.80;99.90;;;;;;5096836;28;20032;-79
2023/01/31 03:34:31;;;;;;;13.03;6.40;;;2.80;99.90;;;;;;5114783;28;20058;-79
2023/01/31 03:37:00;;;;;;;13.47;6.37;;;2.70;99.90;;;;;;5096299;28;20063;-79
2023/01/31 03:39:55;;;;;;;14.70;6.70;;;2.70;99.90;;;;;;5114997;28;20023;-78
2023/01/31 03:42:29;;;;;;;16.07;6.43;;;2.70;99.90;;;;;;5097177;28;20468;-78
2023/01/31 03:45:03;;;;;;;17.07;6.17;;;2.70;99.90;;;;;;5096901;28;20080;-79
2023/01/31 03:47:37;;;;;;;16.67;6.80;;;2.70;99.90;;;;;;5115441;28;20093;-78
2023/01/31 03:50:18;;;;;;;12.23;6.80;;;2.80;99.90;;;;;;5096739;28;20024;-78
2023/01/31 03:52:52;;;;;;;15.67;7.03;;;2.80;99.90;;;;;;5096601;28;20027;-79
2023/01/31 03:55:23;;;;;;;15.77;6.63;;;2.80;99.90;;;;;;5096938;28;20035;-79
2023/01/31 03:57:52;;;;;;;16.65;7.45;;;2.70;99.90;;;;;;5095551;28;20590;-79
2023/01/31 04:00:20;;;;;;;15.70;7.30;;;2.80;99.90;;;;;;5114333;28;20027;-79
2023/01/31 04:02:49;;;;;;;16.50;7.27;;;2.80;99.90;;;;;;5113969;28;20032;-80
2023/01/31 04:05:19;;;;;;;15.30;6.93;;;2.80;99.90;;;;;;5114724;28;20039;-78
2023/01/31 04:07:45;;;;;;;15.70;7.07;;;2.80;99.90;;;;;;5096036;28;20028;-79
2023/01/31 04:10:15;;;;;;;17.07;7.77;;;2.80;99.90;;;;;;5096780;28;20034;-79
2023/01/31 04:12:41;;;;;;;19.20;6.67;;;2.70;99.90;;;;;;5096224;28;20033;-79
2023/01/31 04:15:08;;;;;;;14.17;6.50;;;2.70;99.90;;;;;;5096551;28;20032;-78
2023/01/31 04:17:33;;;;;;;13.57;7.70;;;2.70;99.90;;;;;;5114706;28;20023;-78
2023/01/31 04:19:59;;;;;;;16.80;7.27;;;2.60;99.90;;;;;;5095699;28;20139;-79
2023/01/31 04:22:25;;;;;;;13.30;6.67;;;2.60;99.90;;;;;;5114813;28;20422;-78
2023/01/31 04:24:51;;;;;;;17.43;7.10;;;2.60;99.90;;;;;;5113706;28;20030;-79
2023/01/31 04:27:16;;;;;;;14.93;6.83;;;2.50;99.90;;;;;;5096570;28;20035;-79
2023/01/31 04:29:42;;;;;;;19.60;7.93;;;2.50;99.90;;;;;;5114645;28;20457;-78
2023/01/31 04:32:08;;;;;;;16.60;7.23;;;2.50;99.90;;;;;;5096191;28;20115;-78
2023/01/31 04:34:33;;;;;;;15.50;6.87;;;2.40;99.90;;;;;;5114117;28;20024;-77
2023/01/31 04:36:59;;;;;;;14.97;6.87;;;2.40;99.90;;;;;;5095224;28;20024;-77
2023/01/31 04:39:25;;;;;;;17.00;7.27;;;2.40;99.90;;;;;;5114261;28;20027;-78
2023/01/31 04:41:50;;;;;;;17.50;7.23;;;2.30;99.90;;;;;;5095177;28;20085;-77
2023/01/31 04:44:16;;;;;;;20.03;7.30;;;2.30;99.90;;;;;;5113980;28;20031;-77
2023/01/31 04:46:42;;;;;;;14.80;7.03;;;2.30;99.90;;;;;;5113858;28;20038;-78
2023/01/31 04:49:08;;;;;;;13.77;7.00;;;2.20;99.90;;;;;;5095338;28;20023;-77
2023/01/31 04:51:33;;;;;;;12.17;6.60;;;2.20;99.90;;;;;;5095634;28;20024;-77
2023/01/31 04:53:59;;;;;;;17.20;7.43;;;2.20;99.90;;;;;;5113415;28;20026;-77
2023/01/31 04:56:25;;;;;;;16.47;7.13;;;2.20;99.90;;;;;;5113805;28;20030;-78
2023/01/31 04:58:50;;;;;;;18.60;7.67;;;2.20;99.90;;;;;;5095388;28;20020;-78
2023/01/31 05:01:16;;;;;;;17.27;7.57;;;2.10;99.90;;;;;;5095936;28;20035;-78
2023/01/31 05:03:42;;;;;;;17.03;7.27;;;2.10;99.90;;;;;;5113817;28;20032;-78
2023/01/31 05:06:08;;;;;;;14.47;6.50;;;2.10;99.90;;;;;;5113722;28;20461;-78
2023/01/31 05:08:33;;;;;;;15.40;7.10;;;2.10;99.90;;;;;;5095780;28;20111;-78
2023/01/31 05:11:01;;;;;;;16.23;7.27;;;2.10;99.90;;;;;;5113260;28;20353;-79
2023/01/31 05:13:28;;;;;;;14.23;6.73;;;2.10;99.90;;;;;;5113585;28;20057;-78
2023/01/31 05:15:56;;;;;;;15.47;7.10;;;2.00;99.90;;;;;;5095278;28;20024;-78
2023/01/31 05:18:22;;;;;;;15.03;7.50;;;2.00;99.90;;;;;;5095827;28;20024;-78
2023/01/31 05:20:49;;;;;;;18.50;7.33;;;1.90;99.90;;;;;;5094866;28;20054;-79
2023/01/31 05:23:16;;;;;;;20.30;7.70;;;1.90;99.90;;;;;;5095312;28;20106;-77
2023/01/31 05:25:42;;;;;;;16.90;7.43;;;1.90;99.90;;;;;;5095432;28;20123;-78
2023/01/31 05:28:08;;;;;;;16.70;7.83;;;1.90;99.90;;;;;;5094993;28;20453;-78
2023/01/31 05:30:34;;;;;;;15.93;6.93;;;1.90;99.90;;;;;;5113757;28;20030;-78
2023/01/31 05:33:00;;;;;;;14.37;7.27;;;1.90;99.90;;;;;;5094690;28;20028;-78
2023/01/31 05:35:25;;;;;;;17.13;7.30;;;1.80;99.90;;;;;;5095719;28;20031;-78
2023/01/31 05:37:53;;;;;;;14.33;7.07;;;1.80;99.90;;;;;;5095183;28;20421;-78
2023/01/31 05:40:19;;;;;;;16.33;7.60;;;1.80;99.90;;;;;;5113304;28;20020;-78
2023/01/31 05:42:44;;;;;;;17.70;7.97;;;1.80;99.90;;;;;;5095249;28;20536;-79
2023/01/31 05:45:11;;;;;;;17.43;7.70;;;1.70;99.90;;;;;;5094492;28;20487;-78
2023/01/31 05:47:37;;;;;;;16.03;7.40;;;1.70;99.90;;;;;;5095417;28;20031;-78
2023/01/31 05:50:03;;;;;;;16.97;7.50;;;1.70;99.90;;;;;;5094949;28;20165;-78
2023/01/31 05:52:29;;;;;;;14.63;7.23;;;1.70;99.90;;;;;;5095374;28;20024;-78
2023/01/31 05:54:55;;;;;;;20.93;8.70;;;1.70;99.90;;;;;;5112948;28;20411;-78
2023/01/31 05:57:21;;;;;;;17.20;7.73;;;1.70;99.90;;;;;;5094998;28;20073;-78
2023/01/31 05:59:46;;;;;;;17.60;7.43;;;1.70;99.90;;;;;;5112719;28;20028;-80
2023/01/31 06:02:12;;;;;;;16.77;8.00;;;1.60;99.90;;;;;;5094653;28;20028;-78
2023/01/31 06:04:38;;;;;;;15.77;8.07;;;1.60;99.90;;;;;;5094795;28;20095;-78
2023/01/31 06:07:03;;;;;;;20.17;8.07;;;1.60;99.90;;;;;;5094339;28;20027;-78
2023/01/31 06:09:29;;;;;;;20.67;8.43;;;1.70;99.90;;;;;;5094884;28;20024;-78
2023/01/31 06:11:55;;;;;;;22.10;8.77;;;1.70;99.90;;;;;;5093741;28;20027;-78
2023/01/31 06:14:21;;;;;;;22.70;9.17;;;1.80;99.90;;;;;;5095068;28;20032;-78
2023/01/31 06:16:46;;;;;;;27.33;9.30;;;1.90;99.90;;;;;;5112897;28;20054;-78
2023/01/31 06:19:12;;;;;;;26.40;9.00;;;1.90;99.90;;;;;;5090611;28;20059;-78
2023/01/31 06:21:37;;;;;;;23.60;9.43;;;1.90;99.90;;;;;;5093656;28;20407;-77
2023/01/31 06:24:03;;;;;;;20.03;8.47;;;1.90;99.90;;;;;;5094698;28;20028;-78
2023/01/31 06:26:29;;;;;;;26.17;9.20;;;2.00;99.90;;;;;;5096608;28;20039;-78
2023/01/31 06:28:55;;;;;;;27.23;8.93;;;2.00;99.90;;;;;;5094273;28;20029;-78
2023/01/31 06:31:20;;;;;;;24.80;9.00;;;2.00;99.90;;;;;;5094683;28;20028;-79
2023/01/31 06:33:46;;;;;;;23.10;8.63;;;2.00;99.90;;;;;;5095938;28;20121;-78
2023/01/31 06:36:12;;;;;;;24.63;8.13;;;2.10;99.90;;;;;;5094404;28;20028;-77
2023/01/31 06:38:37;;;;;;;26.33;9.17;;;2.10;99.90;;;;;;5096010;28;20028;-78
2023/01/31 06:41:03;;;;;;;22.13;9.00;;;2.10;99.90;;;;;;5094528;28;20116;-78
2023/01/31 06:43:29;;;;;;;28.87;8.90;;;2.20;99.90;;;;;;5094446;28;20027;-78
2023/01/31 06:45:54;;;;;;;23.67;9.03;;;2.20;99.90;;;;;;5095544;28;20028;-78
2023/01/31 06:48:20;;;;;;;24.27;8.80;;;2.20;99.90;;;;;;5095814;28;20020;-78
2023/01/31 06:50:46;;;;;;;21.90;8.37;;;2.30;99.90;;;;;;5094802;28;20040;-78
2023/01/31 06:53:11;;;;;;;19.90;8.10;;;2.30;99.90;;;;;;5095215;28;20575;-77
2023/01/31 06:55:38;;;;;;;22.80;8.30;;;2.40;99.90;;;;;;5094867;28;20137;-78
2023/01/31 06:58:03;;;;;;;22.03;8.47;;;2.40;99.90;;;;;;5093768;28;20135;-78
2023/01/31 07:00:29;;;;;;;29.37;9.40;;;2.40;99.90;;;;;;5094173;28;20114;-77
2023/01/31 07:02:55;;;;;;;23.77;8.77;;;2.40;99.90;;;;;;5093375;28;20076;-79
2023/01/31 07:05:22;;;;;;;29.03;8.97;;;2.40;99.90;;;;;;5095206;28;20024;-78
2023/01/31 07:07:48;;;;;;;22.97;9.33;;;2.40;99.90;;;;;;5094057;28;20070;-78
2023/01/31 07:10:15;;;;;;;24.07;9.60;;;2.40;99.90;;;;;;5093225;28;20024;-78
2023/01/31 07:12:41;;;;;;;21.90;8.80;;;2.40;99.90;;;;;;5095093;28;20056;-78
2023/01/31 07:15:08;;;;;;;26.57;9.67;;;2.40;99.90;;;;;;5093531;28;20117;-78
2023/01/31 07:17:34;;;;;;;20.50;8.83;;;2.40;99.90;;;;;;5093746;28;20062;-78
2023/01/31 07:20:00;;;;;;;28.10;9.40;;;2.40;99.90;;;;;;5093319;28;20071;-78
2023/01/31 07:22:25;;;;;;;20.97;8.57;;;2.40;99.90;;;;;;5095258;28;20107;-78
2023/01/31 07:24:51;;;;;;;22.33;8.77;;;2.30;99.90;;;;;;5093588;28;20024;-80
2023/01/31 07:27:16;;;;;;;22.13;8.13;;;2.30;99.90;;;;;;5093323;28;20039;-78
2023/01/31 07:29:45;;;;;;;21.00;8.80;;;2.20;99.90;;;;;;5093694;28;20127;-78
2023/01/31 07:32:11;;;;;;;22.00;8.80;;;2.20;99.90;;;;;;5092932;28;20028;-78
2023/01/31 07:34:36;;;;;;;18.07;8.13;;;2.20;99.90;;;;;;5092687;28;20043;-78
2023/01/31 07:37:02;;;;;;;22.07;8.70;;;2.20;99.90;;;;;;5093153;28;20028;-78
2023/01/31 07:39:28;;;;;;;21.93;8.77;;;2.20;99.90;;;;;;5093763;28;20028;-78
2023/01/31 07:41:54;;;;;;;21.53;8.90;;;2.20;99.90;;;;;;5093364;28;20048;-80
2023/01/31 07:44:20;;;;;;;18.00;8.37;;;2.10;99.90;;;;;;5093375;28;20032;-78
2023/01/31 07:46:46;;;;;;;18.00;8.23;;;2.10;99.90;;;;;;5094610;28;20447;-77
2023/01/31 07:49:11;;;;;;;20.77;8.03;;;2.10;99.90;;;;;;5092911;28;20020;-79
2023/01/31 07:51:37;;;;;;;20.07;8.37;;;2.10;99.90;;;;;;5093953;28;20020;-80
2023/01/31 07:54:05;;;;;;;20.97;8.57;;;2.10;99.90;;;;;;5082830;28;20027;-78
2023/01/31 07:56:31;;;;;;;21.93;8.90;;;2.10;99.90;;;;;;5083714;28;20043;-78
2023/01/31 07:58:58;;;;;;;18.27;8.23;;;2.10;99.90;;;;;;5092546;28;20028;-79
2023/01/31 08:04:12;;;;;;;22.63;9.80;;;2.10;99.90;;;;;;5092587;28;20039;-78
2023/01/31 08:06:39;;;;;;;20.23;8.37;;;2.10;99.90;;;;;;5093290;28;20032;-78
2023/01/31 08:09:04;;;;;;;21.03;8.03;;;2.10;99.90;;;;;;5087570;28;20758;-78
2023/01/31 08:11:30;;;;;;;16.93;7.23;;;2.20;99.90;;;;;;5090083;28;20038;-77
2023/01/31 08:13:55;;;;;;;17.50;7.97;;;2.20;99.90;;;;;;5089266;28;20036;-77
2023/01/31 08:16:21;;;;;;;17.17;7.43;;;2.30;99.90;;;;;;5073252;28;20028;-77
2023/01/31 08:18:47;;;;;;;19.40;7.40;;;2.30;99.90;;;;;;5073239;28;20036;-78
2023/01/31 08:21:14;;;;;;;19.37;7.90;;;2.40;99.90;;;;;;5075496;28;20710;-78
2023/01/31 08:23:40;;;;;;;20.90;7.80;;;2.40;99.90;;;;;;5075371;28;20038;-77
2023/01/31 08:26:15;;;;;;;19.93;8.30;;;2.40;99.90;;;;;;5080568;28;20024;-78
2023/01/31 08:28:41;;;;;;;19.03;8.10;;;2.50;99.90;;;;;;5096318;28;20530;-79
2023/01/31 08:31:16;;;;;;;19.80;7.80;;;2.50;99.90;;;;;;5086075;28;20028;-77
2023/01/31 08:33:42;;;;;;;20.27;7.57;;;2.50;99.90;;;;;;5092145;28;20035;-75
2023/01/31 08:36:10;;;;;;;17.43;7.23;;;2.50;99.90;;;;;;5104774;28;20027;-78
2023/01/31 08:38:35;;;;;;;15.77;7.60;;;2.50;99.90;;;;;;5076742;28;20024;-77
2023/01/31 08:41:01;;;;;;;18.37;7.53;;;2.50;99.90;;;;;;5113404;28;20027;-75
2023/01/31 08:43:26;;;;;;;16.97;7.90;;;2.60;99.90;;;;;;5095486;28;20027;-75
2023/01/31 08:45:52;;;;;;;21.53;7.87;;;2.60;99.90;;;;;;5112912;28;20426;-75
2023/01/31 08:48:17;;;;;;;15.70;7.33;;;2.60;99.90;;;;;;5094558;28;20055;-76
2023/01/31 08:50:43;;;;;;;15.43;7.37;;;2.60;99.90;;;;;;5094736;28;20457;-77
2023/01/31 08:53:09;;;;;;;20.50;7.60;;;2.60;99.90;;;;;;5079701;28;20035;-76
2023/01/31 08:55:35;;;;;;;18.83;7.80;;;2.70;99.90;;;;;;5075538;28;20028;-75
2023/01/31 08:58:01;;;;;;;15.33;7.70;;;2.70;99.90;;;;;;5112389;28;20085;-76
2023/01/31 09:00:28;;;;;;;18.27;7.60;;;2.80;99.90;;;;;;5086426;28;20047;-76
2023/01/31 09:02:55;;;;;;;14.60;7.03;;;2.90;99.90;;;;;;5086509;28;20024;-76
2023/01/31 09:05:21;;;;;;;16.33;7.77;;;2.90;99.90;;;;;;5088330;28;20043;-76
2023/01/31 09:07:47;;;;;;;16.80;7.93;;;3.00;99.90;;;;;;5094927;28;20035;-76
2023/01/31 09:10:12;;;;;;;20.43;8.03;;;3.00;99.90;;;;;;5094508;28;20023;-77
2023/01/31 09:12:38;;;;;;;15.77;6.87;;;3.00;99.90;;;;;;5094844;28;20019;-76
2023/01/31 09:15:05;;;;;;;19.57;7.67;;;3.00;99.90;;;;;;5094007;28;20051;-76
2023/01/31 09:17:30;;;;;;;14.03;7.53;;;3.10;99.90;;;;;;5112993;28;20346;-73
2023/01/31 09:19:56;;;;;;;15.27;7.37;;;3.10;99.90;;;;;;5110344;28;20059;-76
2023/01/31 09:22:22;;;;;;;16.87;7.17;;;3.10;99.90;;;;;;5093927;28;20430;-74
2023/01/31 09:24:48;;;;;;;18.07;6.87;;;3.10;99.90;;;;;;5111570;28;20020;-73
2023/01/31 09:27:14;;;;;;;14.40;6.80;;;3.10;99.90;;;;;;5110852;28;20031;-72
2023/01/31 09:29:40;;;;;;;16.27;6.50;;;3.10;99.90;;;;;;5094146;28;20080;-72
2023/01/31 09:32:06;;;;;;;14.83;6.33;;;3.20;99.90;;;;;;5111787;28;20027;-72
2023/01/31 09:34:32;;;;;;;13.23;6.63;;;3.20;99.90;;;;;;5094405;28;20031;-72
2023/01/31 09:36:58;;;;;;;16.40;6.90;;;3.20;99.90;;;;;;5093967;28;20414;-74
2023/01/31 09:39:24;;;;;;;13.97;6.43;;;3.20;99.90;;;;;;5093899;28;20038;-72
2023/01/31 09:41:56;;;;;;;16.77;6.87;;;3.10;99.90;;;;;;5093917;28;20027;-71
2023/01/31 09:44:30;;;;;;;17.73;6.63;;;3.10;99.90;;;;;;5093381;28;20038;-72
2023/01/31 09:47:08;;;;;;;13.83;6.63;;;3.10;99.90;;;;;;5112097;28;20055;-72
2023/01/31 09:49:44;;;;;;;16.67;7.00;;;3.30;99.90;;;;;;5112583;28;20101;-71
2023/01/31 09:52:10;;;;;;;15.73;7.27;;;3.40;99.90;;;;;;5111450;28;20027;-72
2023/01/31 09:54:38;;;;;;;16.60;6.43;;;3.50;99.90;;;;;;5094072;28;20050;-72
2023/01/31 09:57:26;;;;;;;12.60;6.60;;;3.70;99.90;;;;;;5112573;28;20069;-72
2023/01/31 10:00:18;;;;;;;12.40;6.20;;;3.80;99.90;;;;;;5115900;28;20032;-72
2023/01/31 10:03:21;;;;;;;16.77;6.43;;;4.00;99.90;;;;;;5083921;28;20139;-73
2023/01/31 10:05:47;;;;;;;14.60;6.30;;;4.00;99.90;;;;;;5091512;28;20077;-72
2023/01/31 10:08:34;;;;;;;17.63;6.77;;;4.00;99.90;;;;;;5101841;28;20028;-72
2023/01/31 10:11:05;;;;;;;14.57;6.03;;;4.10;99.90;;;;;;5091227;28;20031;-73
2023/01/31 10:13:35;;;;;;;13.60;6.37;;;4.10;99.90;;;;;;5080590;28;20024;-72
2023/01/31 10:16:09;;;;;;;14.77;6.27;;;4.00;99.90;;;;;;5096784;28;20115;-73
2023/01/31 10:18:50;;;;;;;16.90;6.23;;;4.10;99.90;;;;;;5104539;28;20024;-72
2023/01/31 10:21:19;;;;;;;17.83;6.03;;;4.10;99.90;;;;;;5087706;28;20489;-72
2023/01/31 10:24:15;;;;;;;12.57;6.17;;;4.10;99.90;;;;;;5080396;28;20098;-73
2023/01/31 10:26:44;;;;;;;15.77;6.70;;;4.10;99.90;;;;;;5096845;28;20023;-72
2023/01/31 10:29:09;;;;;;;13.27;6.37;;;4.10;99.90;;;;;;5080370;28;20078;-73
2023/01/31 10:31:44;;;;;;;16.60;6.70;;;4.10;99.90;;;;;;5094536;28;20428;-72
2023/01/31 10:34:36;;;;;;;16.57;6.10;;;4.10;99.90;;;;;;5094846;28;20047;-72
2023/01/31 10:37:06;;;;;;;16.00;5.90;;;4.00;99.90;;;;;;5081313;28;20020;-74
2023/01/31 10:39:45;;;;;;;17.67;6.40;;;4.00;99.90;;;;;;5093249;28;20027;-73
2023/01/31 10:42:14;;;;;;;13.47;6.13;;;3.90;99.90;;;;;;5075925;28;20028;-72
2023/01/31 10:45:09;;;;;;;17.13;6.50;;;3.90;99.90;;;;;;5105940;28;20032;-72
2023/01/31 10:47:50;;;;;;;15.97;5.63;;;4.00;99.90;;;;;;5098276;28;20024;-72
2023/01/31 10:50:33;;;;;;;14.37;5.73;;;4.10;99.90;;;;;;5096034;28;20028;-72
2023/01/31 10:53:22;;;;;;;12.43;5.63;;;4.20;99.90;;;;;;5082050;28;20024;-74
2023/01/31 10:55:50;;;;;;;14.03;5.70;;;4.30;99.90;;;;;;5080237;28;20024;-72
2023/01/31 10:58:21;;;;;;;13.47;6.10;;;4.20;99.90;;;;;;5094727;28;20019;-72
2023/01/31 11:00:47;;;;;;;13.83;6.03;;;4.10;99.90;;;;;;5096108;28;20168;-72
2023/01/31 11:03:14;;;;;;;16.20;5.40;;;4.20;99.90;;;;;;5095180;28;20381;-72
2023/01/31 11:05:52;;;;;;;12.17;4.53;;;4.20;99.90;;;;;;5095520;28;20039;-72
2023/01/31 11:08:27;;;;;;;11.60;4.57;;;4.20;99.90;;;;;;5095146;28;20111;-72
2023/01/31 11:10:55;;;;;;;10.97;5.23;;;4.10;99.90;;;;;;5096353;28;20024;-72
2023/01/31 11:13:22;;;;;;;12.80;5.37;;;4.10;99.90;;;;;;5094882;28;20057;-73
2023/01/31 11:15:52;;;;;;;10.93;4.90;;;4.10;99.90;;;;;;5075906;28;20028;-72
2023/01/31 11:18:44;;;;;;;10.60;4.73;;;4.00;99.90;;;;;;5083913;28;20026;-73
2023/01/31 11:21:22;;;;;;;13.15;4.68;;;4.10;99.90;;;;;;5097894;28;20043;-72
2023/01/31 11:23:49;;;;;;;12.27;4.60;;;4.00;99.90;;;;;;5093860;28;20020;-73
2023/01/31 11:26:29;;;;;;;13.27;5.47;;;4.10;99.90;;;;;;5082837;28;20101;-72
2023/01/31 11:28:54;;;;;;;8.87;4.67;;;4.20;99.90;;;;;;5100804;28;20016;-73
2023/01/31 11:31:31;;;;;;;10.73;4.70;;;4.20;99.90;;;;;;5074891;28;20026;-73
2023/01/31 11:34:00;;;;;;;9.97;4.57;;;4.20;99.90;;;;;;5110834;28;20039;-72
2023/01/31 11:36:32;;;;;;;12.70;5.13;;;4.10;99.90;;;;;;5085540;28;20031;-72
2023/01/31 11:38:57;;;;;;;10.40;5.00;;;4.10;99.90;;;;;;5089711;28;20024;-73
2023/01/31 11:41:36;;;;;;;12.20;4.40;;;4.10;99.90;;;;;;5094216;28;20491;-72
2023/01/31 11:44:24;;;;;;;9.60;4.93;;;4.10;99.90;;;;;;5074505;28;20035;-74
2023/01/31 11:46:52;;;;;;;11.40;5.17;;;4.10;99.90;;;;;;5088127;28;20032;-73
2023/01/31 11:49:38;;;;;;;12.33;5.53;;;4.10;99.90;;;;;;5078081;28;20028;-73
2023/01/31 11:52:17;;;;;;;11.73;4.97;;;4.10;99.90;;;;;;5081126;28;20020;-73
2023/01/31 11:54:53;;;;;;;11.97;4.83;;;4.00;99.90;;;;;;5095697;28;20093;-72
2023/01/31 11:57:30;;;;;;;11.87;4.77;;;4.00;99.90;;;;;;5093774;28;20054;-74
2023/01/31 11:59:58;;;;;;;10.77;4.83;;;4.10;99.90;;;;;;5108271;28;20020;-72
2023/01/31 12:02:35;;;;;;;16.17;5.20;;;4.10;99.90;;;;;;5083504;28;20044;-72
2023/01/31 12:05:12;;;;;;;11.63;4.90;;;4.10;99.90;;;;;;5094646;28;20113;-74
2023/01/31 12:07:49;;;;;;;11.73;4.97;;;4.20;99.90;;;;;;5094515;28;20165;-72
2023/01/31 12:10:50;;;;;;;12.43;4.60;;;4.20;99.90;;;;;;5104783;28;20085;-73
2023/01/31 12:13:19;;;;;;;10.10;4.57;;;4.20;99.90;;;;;;5009665;28;20079;-73
2023/01/31 12:16:06;;;;;;;10.10;4.80;;;4.30;99.90;;;;;;5076919;28;20036;-73
2023/01/31 12:18:37;;;;;;;11.43;4.90;;;4.30;99.90;;;;;;5085313;28;20034;-72
2023/01/31 12:21:14;;;;;;;13.77;4.95;;;4.30;99.90;;;;;;5078919;28;20447;-73
2023/01/31 12:23:49;;;;;;;11.50;4.53;;;4.30;99.90;;;;;;5091332;28;20038;-72
2023/01/31 12:26:37;;;;;;;14.33;4.90;;;4.30;99.90;;;;;;5073482;28;20024;-72
2023/01/31 12:29:33;;;;;;;12.13;4.60;;;4.40;99.90;;;;;;5088682;28;20024;-74
2023/01/31 12:32:07;;;;;;;17.30;4.70;;;4.50;99.90;;;;;;5107581;28;20035;-73
2023/01/31 12:34:33;;;;;;;10.83;4.10;;;4.40;99.90;;;;;;5103366;28;20027;-72
2023/01/31 12:37:17;;;;;;;10.33;4.33;;;4.40;99.90;;;;;;5112826;28;20449;-72
2023/01/31 12:39:56;;;;;;;10.10;4.63;;;4.40;99.90;;;;;;5078262;28;20115;-72
2023/01/31 12:42:27;;;;;;;9.47;4.77;;;4.30;99.90;;;;;;5085236;28;20032;-72
2023/01/31 12:45:13;;;;;;;8.70;4.00;;;4.30;99.90;;;;;;5087657;28;20027;-73
2023/01/31 12:47:52;;;;;;;11.87;4.73;;;4.40;99.90;;;;;;5077773;28;20024;-72
2023/01/31 12:50:33;;;;;;;9.57;4.13;;;4.30;99.90;;;;;;5085922;28;20039;-72
2023/01/31 12:53:11;;;;;;;12.00;4.80;;;4.30;99.90;;;;;;5088778;28;20593;-73
2023/01/31 12:55:51;;;;;;;11.20;4.60;;;4.30;99.90;;;;;;5077412;28;20120;-73
2023/01/31 12:58:32;;;;;;;8.07;3.97;;;4.30;99.90;;;;;;5111115;28;20027;-72
2023/01/31 13:01:32;;;;;;;10.63;4.40;;;4.40;99.90;;;;;;5080034;28;20086;-72
2023/01/31 13:04:17;;;;;;;8.60;4.10;;;4.40;99.90;;;;;;5091597;28;20031;-72
2023/01/31 13:06:51;;;;;;;9.83;3.57;;;4.50;99.90;;;;;;5093798;28;20024;-72
2023/01/31 13:09:28;;;;;;;10.70;4.10;;;4.50;99.90;;;;;;5111983;28;20068;-72
2023/01/31 13:12:08;;;;;;;9.83;4.20;;;4.50;99.90;;;;;;5078801;28;20039;-73
2023/01/31 13:14:40;;;;;;;10.00;3.73;;;4.60;99.90;;;;;;5101402;28;20028;-73
2023/01/31 13:17:07;;;;;;;;;;;4.60;99.90;;;;;;5088522;28;20023;-73